createdAt,value
2023-02-11T00:00:06.190Z,101540.71
2023-02-11T00:02:37.995Z,101534.42
2023-02-11T00:05:10.627Z,101525.23
2023-02-11T00:07:42.642Z,101526.66
2023-02-11T00:10:14.600Z,101524.67
2023-02-11T00:12:46.430Z,101524.61
2023-02-11T00:15:18.213Z,101515.81
2023-02-11T00:17:49.827Z,101513.23
2023-02-11T00:20:21.707Z,101514.44
2023-02-11T00:22:53.476Z,101500.96
2023-02-11T00:25:25.228Z,101497.04
2023-02-11T00:27:57.103Z,101494.55
2023-02-11T00:30:29.032Z,101489.80
2023-02-11T00:33:00.721Z,101475.21
2023-02-11T00:35:32.368Z,101464.36
2023-02-11T00:38:04.174Z,101455.05
2023-02-11T00:40:35.902Z,101455.77
2023-02-11T00:43:07.650Z,101453.94
2023-02-11T00:45:39.222Z,101454.27
2023-02-11T00:48:10.887Z,101458.10
2023-02-11T00:50:42.586Z,101472.48
2023-02-11T00:53:14.497Z,101467.66
2023-02-11T00:55:46.246Z,101459.88
2023-02-11T00:58:18.233Z,101457.63
2023-02-11T01:00:50.459Z,101451.95
2023-02-11T01:03:22.202Z,101441.34
2023-02-11T01:05:54.049Z,101430.08
2023-02-11T01:08:26.049Z,101429.20
2023-02-11T01:11:03.091Z,101426.09
2023-02-11T01:13:37.514Z,101421.85
2023-02-11T01:16:11.827Z,101407.84
2023-02-11T01:18:44.925Z,101394.04
2023-02-11T01:21:17.071Z,101379.89
2023-02-11T01:23:48.864Z,101376.95
2023-02-11T01:26:20.627Z,101371.96
2023-02-11T01:28:52.537Z,101372.54
2023-02-11T01:31:24.268Z,101358.77
2023-02-11T01:33:56.080Z,101348.70
2023-02-11T01:36:27.685Z,101344.98
2023-02-11T01:38:59.322Z,101346.17
2023-02-11T01:41:30.948Z,101344.93
2023-02-11T01:44:15.819Z,101337.95
2023-02-11T01:46:47.679Z,101344.48
2023-02-11T01:49:27.233Z,101342.48
2023-02-11T01:52:03.793Z,101335.08
2023-02-11T01:54:58.155Z,101332.35
2023-02-11T01:57:35.087Z,101324.59
2023-02-11T02:00:15.252Z,101327.42
2023-02-11T02:02:58.918Z,101330.08
2023-02-11T02:05:36.910Z,101332.76
2023-02-11T02:08:16.498Z,101317.73
2023-02-11T02:10:53.594Z,101304.65
2023-02-11T02:13:26.073Z,101310.46
2023-02-11T02:15:59.934Z,101299.77
2023-02-11T02:18:45.471Z,101294.85
2023-02-11T02:21:54.274Z,101290.00
2023-02-11T02:24:51.668Z,101281.98
2023-02-11T02:27:39.503Z,101267.65
2023-02-11T02:30:49.368Z,101266.93
2023-02-11T02:33:40.195Z,101268.83
2023-02-11T02:36:21.430Z,101259.69
2023-02-11T02:38:59.743Z,101250.05
2023-02-11T02:41:35.064Z,101240.15
2023-02-11T02:44:07.744Z,101229.75
2023-02-11T02:46:40.098Z,101220.17
2023-02-11T02:49:15.551Z,101232.33
2023-02-11T02:52:14.275Z,101230.14
2023-02-11T02:55:09.434Z,101203.85
2023-02-11T02:57:54.274Z,101185.41
2023-02-11T03:00:35.271Z,101182.20
2023-02-11T03:03:19.501Z,101175.03
2023-02-11T03:05:59.991Z,101191.68
2023-02-11T03:08:40.121Z,101205.83
2023-02-11T03:11:13.672Z,101206.43
2023-02-11T03:13:48.038Z,101209.04
2023-02-11T03:16:24.277Z,101194.39
2023-02-11T03:19:02.030Z,101195.23
2023-02-11T03:21:38.095Z,101181.85
2023-02-11T03:24:14.881Z,101177.44
2023-02-11T03:26:51.590Z,101174.67
2023-02-11T03:29:32.794Z,101175.85
2023-02-11T03:32:12.731Z,101175.67
2023-02-11T03:34:49.536Z,101165.48
2023-02-11T03:37:27.639Z,101165.10
2023-02-11T03:40:04.979Z,101165.34
2023-02-11T03:42:43.183Z,101162.42
2023-02-11T03:45:18.765Z,101158.50
2023-02-11T03:47:54.915Z,101158.39
2023-02-11T03:50:28.090Z,101149.44
2023-02-11T03:53:02.241Z,101139.17
2023-02-11T03:55:38.591Z,101135.91
2023-02-11T03:58:10.401Z,101119.23
2023-02-11T04:00:44.212Z,101111.41
2023-02-11T04:03:16.525Z,101105.23
2023-02-11T04:05:48.562Z,101114.48
2023-02-11T04:08:20.809Z,101116.63
2023-02-11T04:10:52.421Z,101119.80
2023-02-11T04:13:24.052Z,101119.41
2023-02-11T04:15:55.816Z,101111.95
2023-02-11T04:18:27.408Z,101101.36
2023-02-11T04:20:59.095Z,101100.75
2023-02-11T04:23:30.680Z,101097.21
2023-02-11T04:26:02.490Z,101090.69
2023-02-11T04:28:35.298Z,101090.33
2023-02-11T04:31:07.176Z,101086.77
2023-02-11T04:33:39.105Z,101081.38
2023-02-11T04:36:18.565Z,101070.50
2023-02-11T04:38:55.493Z,101063.95
2023-02-11T04:41:34.560Z,101062.86
2023-02-11T04:44:06.681Z,101060.48
2023-02-11T04:46:38.394Z,101060.11
2023-02-11T04:49:10.137Z,101056.02
2023-02-11T04:51:41.722Z,101042.92
2023-02-11T04:54:13.428Z,101044.69
2023-02-11T04:56:45.063Z,101041.55
2023-02-11T04:59:16.672Z,101028.70
2023-02-11T05:01:48.327Z,101030.51
2023-02-11T05:04:20.214Z,101028.40
2023-02-11T05:06:52.230Z,101031.70
2023-02-11T05:09:23.873Z,101029.60
2023-02-11T05:11:55.497Z,101022.53
2023-02-11T05:14:27.179Z,101026.44
2023-02-11T05:16:58.880Z,101013.40
2023-02-11T05:19:31.566Z,101006.95
2023-02-11T05:22:03.891Z,100998.76
2023-02-11T05:24:36.458Z,100998.85
2023-02-11T05:27:08.206Z,100996.91
2023-02-11T05:29:40.344Z,100990.94
2023-02-11T05:32:12.667Z,100982.11
2023-02-11T05:34:44.336Z,100992.40
2023-02-11T05:37:16.124Z,100989.84
2023-02-11T05:39:48.036Z,100980.95
2023-02-11T05:42:19.799Z,100971.90
2023-02-11T05:44:51.546Z,100972.14
2023-02-11T05:47:23.194Z,100976.73
2023-02-11T05:49:55.120Z,100980.65
2023-02-11T05:52:27.126Z,100980.02
2023-02-11T05:54:58.935Z,100981.00
2023-02-11T05:57:30.677Z,100975.66
2023-02-11T06:00:02.447Z,100967.92
2023-02-11T06:02:34.141Z,100969.70
2023-02-11T06:05:05.958Z,100966.78
2023-02-11T06:07:37.535Z,100966.34
2023-02-11T06:10:10.993Z,100956.06
2023-02-11T06:12:42.679Z,100948.95
2023-02-11T06:15:14.679Z,100943.91
2023-02-11T06:17:46.439Z,100945.80
2023-02-11T06:20:18.427Z,100950.23
2023-02-11T06:22:50.142Z,100949.23
2023-02-11T06:25:22.041Z,100949.52
2023-02-11T06:27:53.795Z,100947.58
2023-02-11T06:30:25.524Z,100935.37
2023-02-11T06:32:57.224Z,100925.22
2023-02-11T06:35:28.834Z,100917.70
2023-02-11T06:38:00.468Z,100915.42
2023-02-11T06:40:32.157Z,100920.61
2023-02-11T06:43:03.972Z,100914.20
2023-02-11T06:45:35.694Z,100910.05
2023-02-11T06:48:07.655Z,100911.05
2023-02-11T06:50:39.916Z,100912.52
2023-02-11T06:53:11.642Z,100913.24
2023-02-11T06:55:43.447Z,100917.34
2023-02-11T06:58:15.434Z,100910.33
2023-02-11T07:00:47.261Z,100901.25
2023-02-11T07:03:19.008Z,100897.84
2023-02-11T07:05:50.948Z,100892.83
2023-02-11T07:08:22.799Z,100898.55
2023-02-11T07:10:54.689Z,100893.10
2023-02-11T07:13:26.254Z,100893.36
2023-02-11T07:15:58.040Z,100890.90
2023-02-11T07:18:29.727Z,100889.73
2023-02-11T07:21:01.704Z,100891.11
2023-02-11T07:23:33.737Z,100884.27
2023-02-11T07:26:08.775Z,100893.59
2023-02-11T07:28:41.651Z,100891.05
2023-02-11T07:31:15.114Z,100886.33
2023-02-11T07:33:47.542Z,100888.31
2023-02-11T07:36:19.752Z,100894.33
2023-02-11T07:38:51.840Z,100887.85
2023-02-11T07:41:25.412Z,100882.25
2023-02-11T07:43:57.449Z,100879.36
2023-02-11T07:46:30.412Z,100873.23
2023-02-11T07:49:02.164Z,100873.41
2023-02-11T07:51:34.277Z,100873.15
2023-02-11T07:54:06.361Z,100878.35
2023-02-11T07:56:38.242Z,100885.48
2023-02-11T07:59:10.166Z,100884.16
2023-02-11T08:01:41.956Z,100871.23
2023-02-11T08:04:13.528Z,100874.70
2023-02-11T08:06:46.403Z,100872.33
2023-02-11T08:09:19.516Z,100862.86
2023-02-11T08:11:51.330Z,100860.20
2023-02-11T08:14:23.025Z,100866.56
2023-02-11T08:16:54.990Z,100855.01
2023-02-11T08:19:27.805Z,100858.08
2023-02-11T08:22:01.739Z,100854.52
2023-02-11T08:24:33.505Z,100856.75
2023-02-11T08:27:05.337Z,100859.48
2023-02-11T08:29:37.087Z,100860.13
2023-02-11T08:32:08.790Z,100853.58
2023-02-11T08:34:40.654Z,100853.52
2023-02-11T08:37:12.511Z,100850.05
2023-02-11T08:39:44.269Z,100858.59
2023-02-11T08:42:16.144Z,100851.89
2023-02-11T08:44:48.255Z,100852.58
2023-02-11T08:47:20.061Z,100850.23
2023-02-11T08:49:51.765Z,100850.27
2023-02-11T08:52:23.612Z,100844.48
2023-02-11T08:54:55.235Z,100835.98
2023-02-11T08:57:27.106Z,100837.56
2023-02-11T08:59:58.889Z,100834.29
2023-02-11T09:02:30.875Z,100826.92
2023-02-11T09:05:02.677Z,100820.50
2023-02-11T09:07:34.472Z,100810.84
2023-02-11T09:10:06.719Z,100797.49
2023-02-11T09:12:38.547Z,100796.15
2023-02-11T09:15:11.636Z,100792.44
2023-02-11T09:17:43.542Z,100785.44
2023-02-11T09:20:15.953Z,100770.32
2023-02-11T09:22:48.147Z,100754.39
2023-02-11T09:25:20.264Z,100734.33
2023-02-11T09:27:54.132Z,100729.66
2023-02-11T09:30:26.595Z,100731.88
2023-02-11T09:32:58.345Z,100726.77
2023-02-11T09:35:30.126Z,100732.77
2023-02-11T09:38:01.854Z,100732.77
2023-02-11T09:40:34.060Z,100741.40
2023-02-11T09:43:10.006Z,100738.42
2023-02-11T09:45:41.947Z,100747.17
2023-02-11T09:48:20.160Z,100752.20
2023-02-11T09:50:56.150Z,100753.17
2023-02-11T09:53:31.163Z,100756.92
2023-02-11T09:56:05.379Z,100762.33
2023-02-11T09:58:40.137Z,100765.56
2023-02-11T10:01:14.953Z,100763.53
2023-02-11T10:04:01.335Z,100772.52
2023-02-11T10:06:47.510Z,100769.17
2023-02-11T10:09:49.312Z,100761.79
2023-02-11T10:12:33.278Z,100748.55
2023-02-11T10:15:19.558Z,100756.11
2023-02-11T10:18:03.559Z,100740.16
2023-02-11T10:20:39.336Z,100738.91
2023-02-11T10:23:22.080Z,100734.90
2023-02-11T10:25:56.687Z,100733.98
2023-02-11T10:28:34.307Z,100724.03
2023-02-11T10:31:08.788Z,100749.68
2023-02-11T10:33:46.363Z,100777.05
2023-02-11T10:36:20.353Z,100765.85
2023-02-11T10:38:51.991Z,100760.14
2023-02-11T10:41:28.011Z,100747.02
2023-02-11T10:44:00.701Z,100743.77
2023-02-11T10:46:40.551Z,100739.13
2023-02-11T10:49:32.744Z,100717.35
2023-02-11T10:52:22.639Z,100704.65
2023-02-11T10:55:03.748Z,100694.59
2023-02-11T10:57:39.032Z,100705.45
2023-02-11T11:00:25.442Z,100689.66
2023-02-11T11:03:01.053Z,100693.99
2023-02-11T11:05:37.118Z,100689.09
2023-02-11T11:08:11.251Z,100685.89
2023-02-11T11:10:45.354Z,100681.55
2023-02-11T11:13:35.913Z,100677.17
2023-02-11T11:16:22.487Z,100675.58
2023-02-11T11:18:56.276Z,100652.48
2023-02-11T11:21:32.636Z,100657.96
2023-02-11T11:24:06.518Z,100630.02
2023-02-11T11:26:46.727Z,100621.99
2023-02-11T11:29:21.328Z,100630.02
2023-02-11T11:31:57.230Z,100656.55
2023-02-11T11:34:33.907Z,100662.26
2023-02-11T11:37:15.304Z,100669.10
2023-02-11T11:39:55.672Z,100684.86
2023-02-11T11:42:30.845Z,100689.23
2023-02-11T11:45:04.993Z,100708.33
2023-02-11T11:47:47.052Z,100706.02
2023-02-11T11:50:29.674Z,100714.29
2023-02-11T11:53:12.045Z,100713.43
2023-02-11T11:55:47.424Z,100719.46
2023-02-11T11:58:22.773Z,100717.14
2023-02-11T12:01:03.844Z,100709.67
2023-02-11T12:04:27.999Z,100708.98
2023-02-11T12:07:13.813Z,100707.59
2023-02-11T12:09:56.199Z,100699.83
2023-02-11T12:12:46.841Z,100689.05
2023-02-11T12:15:33.435Z,100684.02
2023-02-11T12:18:24.107Z,100673.64
2023-02-11T12:21:11.957Z,100675.52
2023-02-11T12:23:57.442Z,100680.73
2023-02-11T12:26:36.848Z,100678.46
2023-02-11T12:29:17.392Z,100672.44
2023-02-11T12:32:06.251Z,100667.65
2023-02-11T12:34:48.658Z,100670.57
2023-02-11T12:37:36.970Z,100668.09
2023-02-11T12:40:20.225Z,100669.40
2023-02-11T12:43:19.142Z,100670.14
2023-02-11T12:46:11.801Z,100665.10
2023-02-11T12:48:58.783Z,100651.65
2023-02-11T12:51:42.275Z,100656.02
2023-02-11T12:54:26.508Z,100655.51
2023-02-11T12:57:05.134Z,100649.05
2023-02-11T12:59:55.737Z,100646.08
2023-02-11T13:02:36.742Z,100646.50
2023-02-11T13:05:29.055Z,100644.48
2023-02-11T13:08:08.070Z,100647.19
2023-02-11T13:10:43.354Z,100654.89
2023-02-11T13:13:24.216Z,100650.87
2023-02-11T13:16:03.745Z,100636.59
2023-02-11T13:18:52.094Z,100638.91
2023-02-11T13:21:48.174Z,100652.59
2023-02-11T13:24:33.710Z,100658.50
2023-02-11T13:27:18.282Z,100664.61
2023-02-11T13:30:21.690Z,100666.84
2023-02-11T13:33:33.827Z,100664.70
2023-02-11T13:36:27.068Z,100669.98
2023-02-11T13:39:04.197Z,100668.65
2023-02-11T13:41:42.244Z,100667.27
2023-02-11T13:44:35.562Z,100662.21
2023-02-11T13:47:09.633Z,100664.16
2023-02-11T13:49:55.494Z,100669.45
2023-02-11T13:52:31.346Z,100662.44
2023-02-11T13:55:10.930Z,100661.88
2023-02-11T13:57:45.898Z,100661.65
2023-02-11T14:00:52.472Z,100660.05
2023-02-11T14:04:20.278Z,100664.98
2023-02-11T14:07:40.251Z,100672.02
2023-02-11T14:10:53.661Z,100666.79
2023-02-11T14:13:29.390Z,100659.98
2023-02-11T14:16:25.268Z,100670.16
2023-02-11T14:19:06.656Z,100660.24
2023-02-11T14:21:38.390Z,100661.50
2023-02-11T14:24:44.100Z,100660.13
2023-02-11T14:27:22.353Z,100655.66
2023-02-11T14:30:13.744Z,100656.70
2023-02-11T14:33:03.258Z,100657.57
2023-02-11T14:35:47.456Z,100666.58
2023-02-11T14:38:29.096Z,100662.52
2023-02-11T14:41:08.601Z,100668.20
2023-02-11T14:43:48.370Z,100674.81
2023-02-11T14:46:23.233Z,100674.77
2023-02-11T14:48:56.357Z,100676.28
2023-02-11T14:51:32.045Z,100677.54
2023-02-11T14:54:16.577Z,100681.70
2023-02-11T14:56:49.858Z,100679.80
2023-02-11T14:59:24.217Z,100674.71
2023-02-11T15:01:57.362Z,100680.60
2023-02-11T15:04:32.731Z,100682.26
2023-02-11T15:07:12.914Z,100683.48
2023-02-11T15:09:49.043Z,100677.64
2023-02-11T15:12:27.204Z,100682.40
2023-02-11T15:15:03.320Z,100681.04
2023-02-11T15:17:40.006Z,100678.39
2023-02-11T15:20:24.563Z,100680.64
2023-02-11T15:23:01.960Z,100680.02
2023-02-11T15:25:36.765Z,100683.50
2023-02-11T15:28:12.693Z,100690.27
2023-02-11T15:30:45.684Z,100691.85
2023-02-11T15:33:26.890Z,100691.68
2023-02-11T15:36:00.944Z,100689.80
2023-02-11T15:38:34.767Z,100697.59
2023-02-11T15:41:09.040Z,100693.30
2023-02-11T15:43:52.185Z,100698.14
2023-02-11T15:46:27.010Z,100705.11
2023-02-11T15:48:58.133Z,100697.77
2023-02-11T15:51:36.233Z,100703.15
2023-02-11T15:54:17.413Z,100705.34
2023-02-11T15:56:57.328Z,100713.17
2023-02-11T15:59:34.432Z,100718.37
2023-02-11T16:02:19.020Z,100714.25
2023-02-11T16:04:58.404Z,100710.80
2023-02-11T16:07:53.271Z,100722.58
2023-02-11T16:10:30.627Z,100727.38
2023-02-11T16:13:23.136Z,100733.70
2023-02-11T16:16:00.025Z,100733.20
2023-02-11T16:19:02.000Z,100739.48
2023-02-11T16:21:39.721Z,100738.83
2023-02-11T16:24:28.874Z,100734.17
2023-02-11T16:27:05.111Z,100737.85
2023-02-11T16:29:42.857Z,100739.58
2023-02-11T16:32:21.709Z,100741.49
2023-02-11T16:34:56.034Z,100745.70
2023-02-11T16:37:30.726Z,100757.09
2023-02-11T16:40:03.642Z,100759.02
2023-02-11T16:42:38.501Z,100761.33
2023-02-11T16:45:13.589Z,100761.44
2023-02-11T16:47:50.911Z,100762.98
2023-02-11T16:50:28.176Z,100771.64
2023-02-11T16:53:04.159Z,100772.21
2023-02-11T16:55:42.884Z,100775.73
2023-02-11T16:58:15.501Z,100777.06
2023-02-11T17:00:51.438Z,100786.30
2023-02-11T17:03:30.190Z,100786.47
2023-02-11T17:06:05.497Z,100791.64
2023-02-11T17:08:41.421Z,100798.80
2023-02-11T17:11:18.942Z,100805.19
2023-02-11T17:13:54.093Z,100809.65
2023-02-11T17:16:31.217Z,100814.94
2023-02-11T17:19:06.900Z,100816.63
2023-02-11T17:21:43.764Z,100823.16
2023-02-11T17:24:18.958Z,100828.30
2023-02-11T17:26:53.444Z,100829.85
2023-02-11T17:29:29.980Z,100832.13
2023-02-11T17:32:03.965Z,100828.16
2023-02-11T17:34:38.495Z,100828.04
2023-02-11T17:37:14.698Z,100833.55
2023-02-11T17:39:49.389Z,100840.45
2023-02-11T17:42:24.190Z,100832.45
2023-02-11T17:44:56.042Z,100830.81
2023-02-11T17:47:30.942Z,100836.41
2023-02-11T17:50:06.040Z,100837.04
2023-02-11T17:52:39.007Z,100844.64
2023-02-11T17:55:13.968Z,100851.64
2023-02-11T17:57:50.331Z,100854.75
2023-02-11T18:00:26.936Z,100857.31
2023-02-11T18:03:03.807Z,100849.36
2023-02-11T18:05:42.736Z,100861.58
2023-02-11T18:08:20.438Z,100864.84
2023-02-11T18:10:54.303Z,100870.43
2023-02-11T18:13:29.333Z,100870.63
2023-02-11T18:16:08.417Z,100874.52
2023-02-11T18:18:41.450Z,100882.23
2023-02-11T18:21:19.106Z,100884.52
2023-02-11T18:23:54.695Z,100888.17
2023-02-11T18:26:31.705Z,100893.77
2023-02-11T18:29:09.425Z,100903.15
2023-02-11T18:31:43.958Z,100904.50
2023-02-11T18:34:18.700Z,100908.80
2023-02-11T18:36:55.176Z,100915.63
2023-02-11T18:39:30.039Z,100904.94
2023-02-11T18:42:02.920Z,100913.65
2023-02-11T18:44:42.803Z,100915.52
2023-02-11T18:47:18.817Z,100919.05
2023-02-11T18:49:53.901Z,100930.33
2023-02-11T18:52:41.025Z,100933.10
2023-02-11T18:55:18.325Z,100931.65
2023-02-11T18:58:00.628Z,100930.98
2023-02-11T19:00:35.639Z,100934.58
2023-02-11T19:03:10.259Z,100939.98
2023-02-11T19:05:48.352Z,100939.40
2023-02-11T19:08:21.896Z,100942.67
2023-02-11T19:10:59.703Z,100944.10
2023-02-11T19:13:37.621Z,100945.59
2023-02-11T19:16:20.431Z,100946.52
2023-02-11T19:18:56.532Z,100944.70
2023-02-11T19:21:34.455Z,100949.62
2023-02-11T19:24:10.598Z,100950.67
2023-02-11T19:26:44.740Z,100954.35
2023-02-11T19:29:19.893Z,100952.77
2023-02-11T19:31:58.247Z,100960.39
2023-02-11T19:34:31.299Z,100967.61
2023-02-11T19:37:06.272Z,100973.77
2023-02-11T19:39:39.856Z,100981.55
2023-02-11T19:42:13.250Z,100989.59
2023-02-11T19:44:47.183Z,100994.63
2023-02-11T19:47:28.690Z,101001.63
2023-02-11T19:50:05.491Z,101005.52
2023-02-11T19:52:43.953Z,101004.95
2023-02-11T19:55:18.593Z,101003.48
2023-02-11T19:57:54.288Z,101010.00
2023-02-11T20:00:27.930Z,101015.83
2023-02-11T20:03:01.295Z,101018.33
2023-02-11T20:05:35.952Z,101022.51
2023-02-11T20:08:09.884Z,101024.08
2023-02-11T20:10:44.924Z,101031.21
2023-02-11T20:13:17.575Z,101038.17
2023-02-11T20:15:55.185Z,101039.29
2023-02-11T20:18:32.030Z,101045.10
2023-02-11T20:21:08.164Z,101051.16
2023-02-11T20:23:42.881Z,101061.13
2023-02-11T20:26:19.076Z,101069.75
2023-02-11T20:29:02.941Z,101080.02
2023-02-11T20:31:40.141Z,101078.16
2023-02-11T20:34:14.210Z,101081.50
2023-02-11T20:36:53.106Z,101079.27
2023-02-11T20:39:32.485Z,101082.91
2023-02-11T20:42:08.122Z,101090.35
2023-02-11T20:44:47.606Z,101097.47
2023-02-11T20:47:23.645Z,101097.16
2023-02-11T20:49:59.177Z,101103.27
2023-02-11T20:52:35.253Z,101105.65
2023-02-11T20:55:10.669Z,101112.97
2023-02-11T20:57:45.782Z,101125.08
2023-02-11T21:00:20.383Z,101134.56
2023-02-11T21:03:09.109Z,101145.36
2023-02-11T21:05:44.845Z,101146.80
2023-02-11T21:08:18.919Z,101152.27
2023-02-11T21:10:53.699Z,101158.29
2023-02-11T21:13:30.851Z,101160.18
2023-02-11T21:16:06.575Z,101168.20
2023-02-11T21:18:46.214Z,101168.61
2023-02-11T21:21:23.311Z,101173.60
2023-02-11T21:23:59.103Z,101177.04
2023-02-11T21:26:34.426Z,101176.61
2023-02-11T21:29:09.256Z,101176.77
2023-02-11T21:31:41.539Z,101174.70
2023-02-11T21:34:18.006Z,101185.45
2023-02-11T21:36:51.776Z,101179.32
2023-02-11T21:39:26.205Z,101184.71
2023-02-11T21:42:01.465Z,101188.23
2023-02-11T21:44:38.203Z,101192.92
2023-02-11T21:47:11.952Z,101196.09
2023-02-11T21:49:49.095Z,101196.58
2023-02-11T21:52:22.792Z,101195.80
2023-02-11T21:54:56.965Z,101195.45
2023-02-11T21:57:29.761Z,101199.08
2023-02-11T22:00:03.661Z,101211.20
2023-02-11T22:02:37.397Z,101220.19
2023-02-11T22:05:10.815Z,101220.95
2023-02-11T22:07:44.070Z,101225.75
2023-02-11T22:10:16.953Z,101231.98
2023-02-11T22:12:49.094Z,101239.42
2023-02-11T22:15:21.552Z,101247.60
2023-02-11T22:17:53.300Z,101256.55
2023-02-11T22:20:25.742Z,101259.58
2023-02-11T22:22:57.572Z,101262.41
2023-02-11T22:25:29.979Z,101271.38
2023-02-11T22:28:01.861Z,101279.34
2023-02-11T22:30:33.718Z,101280.79
2023-02-11T22:33:06.007Z,101287.14
2023-02-11T22:35:37.921Z,101297.86
2023-02-11T22:38:09.613Z,101296.14
2023-02-11T22:40:46.012Z,101306.53
2023-02-11T22:43:17.749Z,101307.45
2023-02-11T22:45:49.609Z,101321.82
2023-02-11T22:48:23.124Z,101329.71
2023-02-11T22:50:54.819Z,101333.30
2023-02-11T22:53:26.698Z,101344.70
2023-02-11T22:55:59.101Z,101345.04
2023-02-11T22:58:30.787Z,101343.60
2023-02-11T23:01:02.969Z,101354.41
2023-02-11T23:03:35.294Z,101361.61
2023-02-11T23:06:07.365Z,101368.05
2023-02-11T23:08:39.572Z,101367.42
2023-02-11T23:11:13.441Z,101377.84
2023-02-11T23:13:46.690Z,101383.77
2023-02-11T23:16:20.805Z,101390.01
2023-02-11T23:18:53.219Z,101391.70
2023-02-11T23:21:27.432Z,101391.08
2023-02-11T23:24:00.783Z,101393.28
2023-02-11T23:26:32.662Z,101394.77
2023-02-11T23:29:04.370Z,101399.27
2023-02-11T23:31:40.155Z,101402.48
2023-02-11T23:34:12.097Z,101412.69
2023-02-11T23:36:43.940Z,101416.81
2023-02-11T23:39:17.787Z,101417.02
2023-02-11T23:41:49.785Z,101426.59
2023-02-11T23:44:21.406Z,101428.91
2023-02-11T23:46:53.243Z,101430.77
2023-02-11T23:49:25.028Z,101433.83
2023-02-11T23:51:56.864Z,101437.16
2023-02-11T23:54:28.565Z,101438.52
2023-02-11T23:57:00.262Z,101445.19
2023-02-11T23:59:31.907Z,101457.11
